sensor_id;sensor_type;location;lat;lon;timestamp;P1;durP1;ratioP1;P2;durP2;ratioP2
73428;SDS011;61643;49.564;17.412;2022-11-20T00:03:38;35.55;;;13.13;;
73428;SDS011;61643;49.564;17.412;2022-11-20T00:06:04;37.05;;;13.98;;
73428;SDS011;61643;49.564;17.412;2022-11-20T00:08:31;40.83;;;16.73;;
73428;SDS011;61643;49.564;17.412;2022-11-20T00:10:57;35.38;;;13.77;;
73428;SDS011;61643;49.564;17.412;2022-11-20T00:13:22;30.73;;;12.70;;
73428;SDS011;61643;49.564;17.412;2022-11-20T00:15:48;25.85;;;10.95;;
73428;SDS011;61643;49.564;17.412;2022-11-20T00:18:13;27.75;;;11.18;;
73428;SDS011;61643;49.564;17.412;2022-11-20T00:20:39;26.17;;;10.43;;
73428;SDS011;61643;49.564;17.412;2022-11-20T00:23:04;24.57;;;10.33;;
73428;SDS011;61643;49.564;17.412;2022-11-20T00:25:33;45.97;;;18.80;;
73428;SDS011;61643;49.564;17.412;2022-11-20T00:27:59;58.72;;;23.73;;
73428;SDS011;61643;49.564;17.412;2022-11-20T00:30:24;49.87;;;20.07;;
73428;SDS011;61643;49.564;17.412;2022-11-20T00:32:50;45.17;;;18.47;;
73428;SDS011;61643;49.564;17.412;2022-11-20T00:35:15;52.80;;;21.27;;
73428;SDS011;61643;49.564;17.412;2022-11-20T00:37:40;46.47;;;18.15;;
73428;SDS011;61643;49.564;17.412;2022-11-20T00:40:06;41.50;;;16.57;;
73428;SDS011;61643;49.564;17.412;2022-11-20T00:42:32;46.00;;;16.42;;
73428;SDS011;61643;49.564;17.412;2022-11-20T00:44:57;44.13;;;17.13;;
73428;SDS011;61643;49.564;17.412;2022-11-20T00:47:23;32.50;;;12.50;;
73428;SDS011;61643;49.564;17.412;2022-11-20T00:49:48;28.20;;;11.17;;
73428;SDS011;61643;49.564;17.412;2022-11-20T00:52:13;32.87;;;12.13;;
73428;SDS011;61643;49.564;17.412;2022-11-20T00:54:39;29.57;;;11.87;;
73428;SDS011;61643;49.564;17.412;2022-11-20T00:57:04;27.57;;;11.00;;
73428;SDS011;61643;49.564;17.412;2022-11-20T00:59:29;24.97;;;10.37;;
73428;SDS011;61643;49.564;17.412;2022-11-20T01:01:55;29.63;;;10.83;;
73428;SDS011;61643;49.564;17.412;2022-11-20T01:04:20;25.53;;;10.00;;
73428;SDS011;61643;49.564;17.412;2022-11-20T01:06:46;27.40;;;10.00;;
73428;SDS011;61643;49.564;17.412;2022-11-20T01:09:13;24.67;;;9.45;;
73428;SDS011;61643;49.564;17.412;2022-11-20T01:11:40;26.88;;;10.38;;
73428;SDS011;61643;49.564;17.412;2022-11-20T01:14:09;27.92;;;12.15;;
73428;SDS011;61643;49.564;17.412;2022-11-20T01:16:38;30.48;;;12.23;;
73428;SDS011;61643;49.564;17.412;2022-11-20T01:19:06;29.63;;;12.30;;
73428;SDS011;61643;49.564;17.412;2022-11-20T01:21:36;29.73;;;11.93;;
73428;SDS011;61643;49.564;17.412;2022-11-20T01:26:30;29.33;;;13.02;;
73428;SDS011;61643;49.564;17.412;2022-11-20T01:28:57;33.45;;;13.68;;
73428;SDS011;61643;49.564;17.412;2022-11-20T01:31:24;33.40;;;14.00;;
73428;SDS011;61643;49.564;17.412;2022-11-20T01:33:58;29.85;;;12.73;;
73428;SDS011;61643;49.564;17.412;2022-11-20T01:36:29;32.53;;;11.90;;
73428;SDS011;61643;49.564;17.412;2022-11-20T01:38:56;28.65;;;12.73;;
73428;SDS011;61643;49.564;17.412;2022-11-20T01:41:23;29.77;;;12.38;;
73428;SDS011;61643;49.564;17.412;2022-11-20T01:44:08;25.52;;;10.32;;
73428;SDS011;61643;49.564;17.412;2022-11-20T01:46:37;28.80;;;11.48;;
73428;SDS011;61643;49.564;17.412;2022-11-20T01:49:11;33.72;;;12.13;;
73428;SDS011;61643;49.564;17.412;2022-11-20T01:51:42;33.90;;;12.10;;
73428;SDS011;61643;49.564;17.412;2022-11-20T01:54:15;30.05;;;11.50;;
73428;SDS011;61643;49.564;17.412;2022-11-20T01:56:44;29.77;;;11.73;;
73428;SDS011;61643;49.564;17.412;2022-11-20T01:59:13;32.90;;;12.73;;
73428;SDS011;61643;49.564;17.412;2022-11-20T02:01:42;32.13;;;11.60;;
73428;SDS011;61643;49.564;17.412;2022-11-20T02:04:08;27.42;;;11.43;;
73428;SDS011;61643;49.564;17.412;2022-11-20T02:06:40;27.13;;;11.88;;
73428;SDS011;61643;49.564;17.412;2022-11-20T02:09:08;30.88;;;12.32;;
73428;SDS011;61643;49.564;17.412;2022-11-20T02:11:34;36.72;;;13.35;;
73428;SDS011;61643;49.564;17.412;2022-11-20T02:13:59;30.83;;;12.13;;
73428;SDS011;61643;49.564;17.412;2022-11-20T02:16:26;32.75;;;13.98;;
73428;SDS011;61643;49.564;17.412;2022-11-20T02:18:54;35.22;;;14.13;;
73428;SDS011;61643;49.564;17.412;2022-11-20T02:21:30;31.13;;;13.23;;
73428;SDS011;61643;49.564;17.412;2022-11-20T02:26:35;32.58;;;12.10;;
73428;SDS011;61643;49.564;17.412;2022-11-20T02:29:16;29.83;;;11.82;;
73428;SDS011;61643;49.564;17.412;2022-11-20T02:31:48;34.15;;;13.20;;
73428;SDS011;61643;49.564;17.412;2022-11-20T02:34:13;32.72;;;13.25;;
73428;SDS011;61643;49.564;17.412;2022-11-20T02:36:39;34.33;;;13.83;;
73428;SDS011;61643;49.564;17.412;2022-11-20T02:39:05;34.50;;;13.65;;
73428;SDS011;61643;49.564;17.412;2022-11-20T02:41:32;34.88;;;13.73;;
73428;SDS011;61643;49.564;17.412;2022-11-20T02:44:01;35.22;;;13.80;;
73428;SDS011;61643;49.564;17.412;2022-11-20T02:46:29;32.33;;;14.25;;
73428;SDS011;61643;49.564;17.412;2022-11-20T02:48:55;37.08;;;15.05;;
73428;SDS011;61643;49.564;17.412;2022-11-20T02:51:20;31.13;;;13.98;;
73428;SDS011;61643;49.564;17.412;2022-11-20T02:53:45;30.63;;;12.48;;
73428;SDS011;61643;49.564;17.412;2022-11-20T02:56:11;28.53;;;12.23;;
73428;SDS011;61643;49.564;17.412;2022-11-20T02:58:36;29.23;;;11.17;;
73428;SDS011;61643;49.564;17.412;2022-11-20T03:01:02;28.77;;;11.87;;
73428;SDS011;61643;49.564;17.412;2022-11-20T03:03:27;28.93;;;12.00;;
73428;SDS011;61643;49.564;17.412;2022-11-20T03:05:52;29.40;;;12.10;;
73428;SDS011;61643;49.564;17.412;2022-11-20T03:08:17;28.53;;;11.70;;
73428;SDS011;61643;49.564;17.412;2022-11-20T03:10:43;30.53;;;11.50;;
73428;SDS011;61643;49.564;17.412;2022-11-20T03:13:08;30.60;;;11.27;;
73428;SDS011;61643;49.564;17.412;2022-11-20T03:15:35;28.43;;;11.43;;
73428;SDS011;61643;49.564;17.412;2022-11-20T03:18:01;35.67;;;13.18;;
73428;SDS011;61643;49.564;17.412;2022-11-20T03:20:26;28.23;;;13.43;;
73428;SDS011;61643;49.564;17.412;2022-11-20T03:22:53;32.67;;;11.27;;
73428;SDS011;61643;49.564;17.412;2022-11-20T03:25:18;29.85;;;12.55;;
73428;SDS011;61643;49.564;17.412;2022-11-20T03:27:44;28.83;;;12.17;;
73428;SDS011;61643;49.564;17.412;2022-11-20T03:30:09;32.87;;;11.33;;
73428;SDS011;61643;49.564;17.412;2022-11-20T03:32:35;42.35;;;15.20;;
73428;SDS011;61643;49.564;17.412;2022-11-20T03:35:00;40.20;;;12.70;;
73428;SDS011;61643;49.564;17.412;2022-11-20T03:37:25;37.03;;;13.50;;
73428;SDS011;61643;49.564;17.412;2022-11-20T03:39:51;36.57;;;13.70;;
73428;SDS011;61643;49.564;17.412;2022-11-20T03:42:16;35.40;;;12.83;;
73428;SDS011;61643;49.564;17.412;2022-11-20T03:45:00;33.83;;;12.10;;
73428;SDS011;61643;49.564;17.412;2022-11-20T03:47:25;38.20;;;13.47;;
73428;SDS011;61643;49.564;17.412;2022-11-20T03:49:50;36.03;;;13.23;;
73428;SDS011;61643;49.564;17.412;2022-11-20T03:52:16;25.38;;;10.55;;
73428;SDS011;61643;49.564;17.412;2022-11-20T03:54:42;29.93;;;11.03;;
73428;SDS011;61643;49.564;17.412;2022-11-20T03:57:07;24.57;;;10.27;;
73428;SDS011;61643;49.564;17.412;2022-11-20T03:59:32;23.03;;;10.10;;
73428;SDS011;61643;49.564;17.412;2022-11-20T04:01:58;25.80;;;9.33;;
73428;SDS011;61643;49.564;17.412;2022-11-20T04:04:23;21.90;;;8.93;;
73428;SDS011;61643;49.564;17.412;2022-11-20T04:06:48;22.27;;;9.43;;
73428;SDS011;61643;49.564;17.412;2022-11-20T04:09:14;19.70;;;8.40;;
73428;SDS011;61643;49.564;17.412;2022-11-20T04:11:40;21.05;;;7.68;;
73428;SDS011;61643;49.564;17.412;2022-11-20T04:14:06;18.27;;;8.18;;
73428;SDS011;61643;49.564;17.412;2022-11-20T04:16:38;21.80;;;8.27;;
73428;SDS011;61643;49.564;17.412;2022-11-20T04:19:05;21.13;;;8.43;;
73428;SDS011;61643;49.564;17.412;2022-11-20T04:21:31;22.50;;;8.93;;
73428;SDS011;61643;49.564;17.412;2022-11-20T04:23:57;22.05;;;8.02;;
73428;SDS011;61643;49.564;17.412;2022-11-20T04:26:24;22.40;;;8.90;;
73428;SDS011;61643;49.564;17.412;2022-11-20T04:28:50;25.50;;;9.70;;
73428;SDS011;61643;49.564;17.412;2022-11-20T04:31:17;23.58;;;9.45;;
73428;SDS011;61643;49.564;17.412;2022-11-20T04:33:45;20.20;;;8.63;;
73428;SDS011;61643;49.564;17.412;2022-11-20T04:36:12;16.20;;;7.15;;
73428;SDS011;61643;49.564;17.412;2022-11-20T04:38:39;16.52;;;7.47;;
73428;SDS011;61643;49.564;17.412;2022-11-20T04:41:05;20.42;;;8.38;;
73428;SDS011;61643;49.564;17.412;2022-11-20T04:43:32;27.02;;;10.20;;
73428;SDS011;61643;49.564;17.412;2022-11-20T04:45:58;26.58;;;9.48;;
73428;SDS011;61643;49.564;17.412;2022-11-20T04:48:25;22.05;;;7.90;;
73428;SDS011;61643;49.564;17.412;2022-11-20T04:50:52;19.67;;;7.45;;
73428;SDS011;61643;49.564;17.412;2022-11-20T04:53:18;20.17;;;7.97;;
73428;SDS011;61643;49.564;17.412;2022-11-20T04:55:43;18.88;;;7.80;;
73428;SDS011;61643;49.564;17.412;2022-11-20T04:58:09;18.73;;;7.78;;
73428;SDS011;61643;49.564;17.412;2022-11-20T05:00:34;19.10;;;7.93;;
73428;SDS011;61643;49.564;17.412;2022-11-20T05:03:00;18.88;;;7.18;;
73428;SDS011;61643;49.564;17.412;2022-11-20T05:05:25;17.30;;;6.80;;
73428;SDS011;61643;49.564;17.412;2022-11-20T05:07:51;18.37;;;8.17;;
73428;SDS011;61643;49.564;17.412;2022-11-20T05:10:16;15.50;;;6.60;;
73428;SDS011;61643;49.564;17.412;2022-11-20T05:12:41;20.20;;;7.43;;
73428;SDS011;61643;49.564;17.412;2022-11-20T05:15:07;21.23;;;7.67;;
73428;SDS011;61643;49.564;17.412;2022-11-20T05:17:32;18.88;;;8.70;;
73428;SDS011;61643;49.564;17.412;2022-11-20T05:19:58;19.53;;;8.50;;
73428;SDS011;61643;49.564;17.412;2022-11-20T05:22:23;18.15;;;7.80;;
73428;SDS011;61643;49.564;17.412;2022-11-20T05:24:49;17.70;;;8.00;;
73428;SDS011;61643;49.564;17.412;2022-11-20T05:27:14;19.37;;;7.63;;
73428;SDS011;61643;49.564;17.412;2022-11-20T05:29:39;16.73;;;7.00;;
73428;SDS011;61643;49.564;17.412;2022-11-20T05:32:05;19.13;;;8.00;;
73428;SDS011;61643;49.564;17.412;2022-11-20T05:34:32;18.83;;;7.68;;
73428;SDS011;61643;49.564;17.412;2022-11-20T05:36:57;23.00;;;9.18;;
73428;SDS011;61643;49.564;17.412;2022-11-20T05:39:23;18.07;;;8.00;;
73428;SDS011;61643;49.564;17.412;2022-11-20T05:41:48;17.10;;;7.63;;
73428;SDS011;61643;49.564;17.412;2022-11-20T05:44:33;19.08;;;7.57;;
73428;SDS011;61643;49.564;17.412;2022-11-20T05:46:59;20.30;;;8.33;;
73428;SDS011;61643;49.564;17.412;2022-11-20T05:49:24;25.60;;;9.33;;
73428;SDS011;61643;49.564;17.412;2022-11-20T05:51:49;23.27;;;8.87;;
73428;SDS011;61643;49.564;17.412;2022-11-20T05:54:15;24.50;;;9.23;;
73428;SDS011;61643;49.564;17.412;2022-11-20T05:56:40;21.00;;;8.60;;
73428;SDS011;61643;49.564;17.412;2022-11-20T05:59:05;23.00;;;9.10;;
73428;SDS011;61643;49.564;17.412;2022-11-20T06:01:31;17.75;;;7.53;;
73428;SDS011;61643;49.564;17.412;2022-11-20T06:03:56;17.57;;;7.83;;
73428;SDS011;61643;49.564;17.412;2022-11-20T06:06:21;23.00;;;8.40;;
73428;SDS011;61643;49.564;17.412;2022-11-20T06:08:47;22.40;;;8.03;;
73428;SDS011;61643;49.564;17.412;2022-11-20T06:11:14;27.60;;;8.90;;
73428;SDS011;61643;49.564;17.412;2022-11-20T06:13:40;21.13;;;8.50;;
73428;SDS011;61643;49.564;17.412;2022-11-20T06:16:06;19.42;;;8.02;;
73428;SDS011;61643;49.564;17.412;2022-11-20T06:18:31;22.98;;;9.10;;
73428;SDS011;61643;49.564;17.412;2022-11-20T06:21:07;22.05;;;8.35;;
73428;SDS011;61643;49.564;17.412;2022-11-20T06:23:35;23.13;;;8.85;;
73428;SDS011;61643;49.564;17.412;2022-11-20T06:26:01;22.40;;;9.88;;
73428;SDS011;61643;49.564;17.412;2022-11-20T06:28:28;23.45;;;9.85;;
73428;SDS011;61643;49.564;17.412;2022-11-20T06:30:53;46.53;;;15.53;;
73428;SDS011;61643;49.564;17.412;2022-11-20T06:33:18;36.90;;;14.10;;
73428;SDS011;61643;49.564;17.412;2022-11-20T06:35:44;24.43;;;10.57;;
73428;SDS011;61643;49.564;17.412;2022-11-20T06:38:09;29.40;;;10.07;;
73428;SDS011;61643;49.564;17.412;2022-11-20T06:40:34;26.13;;;9.30;;
73428;SDS011;61643;49.564;17.412;2022-11-20T06:43:00;27.07;;;10.20;;
73428;SDS011;61643;49.564;17.412;2022-11-20T06:45:25;35.63;;;12.53;;
73428;SDS011;61643;49.564;17.412;2022-11-20T06:47:50;40.37;;;14.17;;
73428;SDS011;61643;49.564;17.412;2022-11-20T06:50:16;23.37;;;9.57;;
73428;SDS011;61643;49.564;17.412;2022-11-20T06:52:41;23.20;;;9.18;;
73428;SDS011;61643;49.564;17.412;2022-11-20T06:55:06;24.13;;;9.77;;
73428;SDS011;61643;49.564;17.412;2022-11-20T06:57:32;25.30;;;9.80;;
73428;SDS011;61643;49.564;17.412;2022-11-20T06:59:57;24.43;;;10.77;;
73428;SDS011;61643;49.564;17.412;2022-11-20T07:02:23;28.57;;;12.97;;
73428;SDS011;61643;49.564;17.412;2022-11-20T07:04:48;68.27;;;23.10;;
73428;SDS011;61643;49.564;17.412;2022-11-20T07:07:13;53.70;;;20.23;;
73428;SDS011;61643;49.564;17.412;2022-11-20T07:09:39;110.30;;;38.27;;
73428;SDS011;61643;49.564;17.412;2022-11-20T07:12:04;39.30;;;15.47;;
73428;SDS011;61643;49.564;17.412;2022-11-20T07:14:30;47.42;;;19.27;;
73428;SDS011;61643;49.564;17.412;2022-11-20T07:16:55;32.03;;;14.13;;
73428;SDS011;61643;49.564;17.412;2022-11-20T07:19:20;28.13;;;12.23;;
73428;SDS011;61643;49.564;17.412;2022-11-20T07:21:46;27.43;;;12.20;;
73428;SDS011;61643;49.564;17.412;2022-11-20T07:24:11;25.77;;;11.00;;
73428;SDS011;61643;49.564;17.412;2022-11-20T07:26:37;28.58;;;11.75;;
73428;SDS011;61643;49.564;17.412;2022-11-20T07:29:03;26.05;;;11.52;;
73428;SDS011;61643;49.564;17.412;2022-11-20T07:31:28;23.70;;;10.20;;
73428;SDS011;61643;49.564;17.412;2022-11-20T07:33:54;26.30;;;11.30;;
73428;SDS011;61643;49.564;17.412;2022-11-20T07:36:19;28.95;;;12.50;;
73428;SDS011;61643;49.564;17.412;2022-11-20T07:38:45;22.50;;;9.67;;
73428;SDS011;61643;49.564;17.412;2022-11-20T07:41:10;23.60;;;10.63;;
73428;SDS011;61643;49.564;17.412;2022-11-20T07:43:35;25.70;;;10.80;;
73428;SDS011;61643;49.564;17.412;2022-11-20T07:46:01;26.50;;;10.07;;
73428;SDS011;61643;49.564;17.412;2022-11-20T07:48:26;25.97;;;10.40;;
73428;SDS011;61643;49.564;17.412;2022-11-20T07:50:55;23.90;;;9.27;;
73428;SDS011;61643;49.564;17.412;2022-11-20T07:53:21;22.65;;;9.98;;
73428;SDS011;61643;49.564;17.412;2022-11-20T07:55:47;25.63;;;11.60;;
73428;SDS011;61643;49.564;17.412;2022-11-20T07:58:13;23.75;;;9.60;;
73428;SDS011;61643;49.564;17.412;2022-11-20T08:00:39;26.65;;;11.20;;
73428;SDS011;61643;49.564;17.412;2022-11-20T08:03:04;28.92;;;12.95;;
73428;SDS011;61643;49.564;17.412;2022-11-20T08:05:30;26.85;;;11.23;;
73428;SDS011;61643;49.564;17.412;2022-11-20T08:07:55;24.63;;;10.60;;
73428;SDS011;61643;49.564;17.412;2022-11-20T08:10:21;29.97;;;11.03;;
73428;SDS011;61643;49.564;17.412;2022-11-20T08:12:47;26.17;;;10.03;;
73428;SDS011;61643;49.564;17.412;2022-11-20T08:15:34;22.05;;;9.35;;
73428;SDS011;61643;49.564;17.412;2022-11-20T08:18:04;20.92;;;8.52;;
73428;SDS011;61643;49.564;17.412;2022-11-20T08:20:31;24.17;;;9.65;;
73428;SDS011;61643;49.564;17.412;2022-11-20T08:22:57;26.60;;;10.18;;
73428;SDS011;61643;49.564;17.412;2022-11-20T08:25:27;28.33;;;11.13;;
73428;SDS011;61643;49.564;17.412;2022-11-20T08:27:53;28.02;;;10.38;;
73428;SDS011;61643;49.564;17.412;2022-11-20T08:30:19;25.53;;;9.97;;
73428;SDS011;61643;49.564;17.412;2022-11-20T08:32:44;36.05;;;13.85;;
73428;SDS011;61643;49.564;17.412;2022-11-20T08:35:09;29.30;;;12.73;;
73428;SDS011;61643;49.564;17.412;2022-11-20T08:37:35;32.73;;;11.70;;
73428;SDS011;61643;49.564;17.412;2022-11-20T08:40:02;29.80;;;11.43;;
73428;SDS011;61643;49.564;17.412;2022-11-20T08:42:28;29.63;;;12.38;;
73428;SDS011;61643;49.564;17.412;2022-11-20T08:44:53;29.27;;;12.23;;
73428;SDS011;61643;49.564;17.412;2022-11-20T08:47:18;28.67;;;11.23;;
73428;SDS011;61643;49.564;17.412;2022-11-20T08:49:44;30.90;;;11.63;;
73428;SDS011;61643;49.564;17.412;2022-11-20T08:52:09;33.37;;;11.57;;
73428;SDS011;61643;49.564;17.412;2022-11-20T08:54:34;28.33;;;10.87;;
73428;SDS011;61643;49.564;17.412;2022-11-20T08:57:00;30.03;;;11.40;;
73428;SDS011;61643;49.564;17.412;2022-11-20T08:59:25;27.07;;;10.50;;
73428;SDS011;61643;49.564;17.412;2022-11-20T09:01:50;25.83;;;10.43;;
73428;SDS011;61643;49.564;17.412;2022-11-20T09:04:16;31.53;;;11.73;;
73428;SDS011;61643;49.564;17.412;2022-11-20T09:06:41;29.17;;;11.50;;
73428;SDS011;61643;49.564;17.412;2022-11-20T09:09:06;26.13;;;10.70;;
73428;SDS011;61643;49.564;17.412;2022-11-20T09:11:32;27.65;;;11.95;;
73428;SDS011;61643;49.564;17.412;2022-11-20T09:13:59;27.73;;;10.13;;
73428;SDS011;61643;49.564;17.412;2022-11-20T09:16:25;23.40;;;9.70;;
73428;SDS011;61643;49.564;17.412;2022-11-20T09:18:50;27.97;;;10.27;;
73428;SDS011;61643;49.564;17.412;2022-11-20T09:21:16;24.90;;;10.20;;
73428;SDS011;61643;49.564;17.412;2022-11-20T09:23:41;25.77;;;9.55;;
73428;SDS011;61643;49.564;17.412;2022-11-20T09:26:09;20.98;;;9.23;;
73428;SDS011;61643;49.564;17.412;2022-11-20T09:28:36;24.20;;;10.32;;
73428;SDS011;61643;49.564;17.412;2022-11-20T09:31:08;21.48;;;9.18;;
73428;SDS011;61643;49.564;17.412;2022-11-20T09:33:39;20.60;;;10.20;;
73428;SDS011;61643;49.564;17.412;2022-11-20T09:36:04;25.17;;;9.33;;
73428;SDS011;61643;49.564;17.412;2022-11-20T09:38:30;21.63;;;10.05;;
73428;SDS011;61643;49.564;17.412;2022-11-20T09:43:49;22.63;;;8.98;;
73428;SDS011;61643;49.564;17.412;2022-11-20T09:46:29;24.38;;;9.50;;
73428;SDS011;61643;49.564;17.412;2022-11-20T09:49:09;26.27;;;11.10;;
73428;SDS011;61643;49.564;17.412;2022-11-20T09:54:39;22.95;;;9.27;;
73428;SDS011;61643;49.564;17.412;2022-11-20T09:57:09;23.10;;;9.32;;
73428;SDS011;61643;49.564;17.412;2022-11-20T09:59:39;23.98;;;9.13;;
73428;SDS011;61643;49.564;17.412;2022-11-20T10:04:56;30.38;;;10.18;;
73428;SDS011;61643;49.564;17.412;2022-11-20T10:13:17;22.15;;;10.27;;
73428;SDS011;61643;49.564;17.412;2022-11-20T10:21:22;28.38;;;10.75;;
73428;SDS011;61643;49.564;17.412;2022-11-20T10:29:13;24.23;;;9.70;;
73428;SDS011;61643;49.564;17.412;2022-11-20T10:31:54;27.58;;;10.75;;
73428;SDS011;61643;49.564;17.412;2022-11-20T10:34:38;26.77;;;10.00;;
73428;SDS011;61643;49.564;17.412;2022-11-20T10:37:23;28.13;;;10.13;;
73428;SDS011;61643;49.564;17.412;2022-11-20T10:39:53;26.40;;;10.35;;
73428;SDS011;61643;49.564;17.412;2022-11-20T10:45:27;33.65;;;13.45;;
73428;SDS011;61643;49.564;17.412;2022-11-20T10:48:07;29.92;;;11.05;;
73428;SDS011;61643;49.564;17.412;2022-11-20T10:50:39;31.55;;;12.13;;
73428;SDS011;61643;49.564;17.412;2022-11-20T10:56:14;29.20;;;12.15;;
73428;SDS011;61643;49.564;17.412;2022-11-20T10:59:15;30.67;;;11.75;;
73428;SDS011;61643;49.564;17.412;2022-11-20T11:02:14;29.15;;;11.77;;
73428;SDS011;61643;49.564;17.412;2022-11-20T11:04:47;27.73;;;11.32;;
73428;SDS011;61643;49.564;17.412;2022-11-20T11:09:53;28.85;;;11.45;;
73428;SDS011;61643;49.564;17.412;2022-11-20T11:12:21;30.02;;;11.48;;
73428;SDS011;61643;49.564;17.412;2022-11-20T11:14:50;32.67;;;12.15;;
73428;SDS011;61643;49.564;17.412;2022-11-20T11:17:27;33.22;;;12.68;;
73428;SDS011;61643;49.564;17.412;2022-11-20T11:22:43;30.45;;;12.38;;
73428;SDS011;61643;49.564;17.412;2022-11-20T11:25:21;27.42;;;11.55;;
73428;SDS011;61643;49.564;17.412;2022-11-20T11:27:59;34.20;;;13.52;;
73428;SDS011;61643;49.564;17.412;2022-11-20T11:30:28;45.00;;;17.00;;
73428;SDS011;61643;49.564;17.412;2022-11-20T11:35:31;29.90;;;11.68;;
73428;SDS011;61643;49.564;17.412;2022-11-20T11:38:04;42.15;;;14.85;;
73428;SDS011;61643;49.564;17.412;2022-11-20T11:40:33;41.67;;;15.95;;
73428;SDS011;61643;49.564;17.412;2022-11-20T11:43:04;54.30;;;18.75;;
73428;SDS011;61643;49.564;17.412;2022-11-20T11:45:53;87.93;;;23.90;;
73428;SDS011;61643;49.564;17.412;2022-11-20T11:48:20;59.50;;;19.30;;
73428;SDS011;61643;49.564;17.412;2022-11-20T11:50:49;75.07;;;24.65;;
73428;SDS011;61643;49.564;17.412;2022-11-20T11:53:17;46.92;;;16.90;;
73428;SDS011;61643;49.564;17.412;2022-11-20T12:00:56;45.50;;;16.63;;
73428;SDS011;61643;49.564;17.412;2022-11-20T12:03:29;30.08;;;12.65;;
73428;SDS011;61643;49.564;17.412;2022-11-20T12:06:01;33.58;;;14.18;;
73428;SDS011;61643;49.564;17.412;2022-11-20T12:11:11;31.75;;;12.65;;
73428;SDS011;61643;49.564;17.412;2022-11-20T12:16:35;35.38;;;14.18;;
73428;SDS011;61643;49.564;17.412;2022-11-20T12:19:03;44.00;;;15.02;;
73428;SDS011;61643;49.564;17.412;2022-11-20T12:21:42;47.83;;;17.92;;
73428;SDS011;61643;49.564;17.412;2022-11-20T12:30:04;49.25;;;19.00;;
73428;SDS011;61643;49.564;17.412;2022-11-20T12:32:49;50.03;;;18.35;;
73428;SDS011;61643;49.564;17.412;2022-11-20T12:38:31;40.88;;;16.52;;
73428;SDS011;61643;49.564;17.412;2022-11-20T12:41:36;42.10;;;16.17;;
73428;SDS011;61643;49.564;17.412;2022-11-20T12:48:03;39.83;;;15.10;;
73428;SDS011;61643;49.564;17.412;2022-11-20T13:04:06;36.55;;;15.68;;
73428;SDS011;61643;49.564;17.412;2022-11-20T13:06:52;42.00;;;16.88;;
73428;SDS011;61643;49.564;17.412;2022-11-20T13:09:19;42.45;;;15.80;;
73428;SDS011;61643;49.564;17.412;2022-11-20T13:11:49;41.03;;;15.25;;
73428;SDS011;61643;49.564;17.412;2022-11-20T13:17:13;42.38;;;16.88;;
73428;SDS011;61643;49.564;17.412;2022-11-20T13:19:40;42.05;;;17.75;;
73428;SDS011;61643;49.564;17.412;2022-11-20T13:22:07;43.90;;;15.60;;
73428;SDS011;61643;49.564;17.412;2022-11-20T13:24:33;45.92;;;17.40;;
73428;SDS011;61643;49.564;17.412;2022-11-20T13:27:20;44.73;;;16.87;;
73428;SDS011;61643;49.564;17.412;2022-11-20T13:29:47;39.70;;;15.43;;
73428;SDS011;61643;49.564;17.412;2022-11-20T13:32:25;45.35;;;17.38;;
73428;SDS011;61643;49.564;17.412;2022-11-20T13:34:59;38.00;;;17.08;;
73428;SDS011;61643;49.564;17.412;2022-11-20T13:37:33;38.97;;;16.52;;
73428;SDS011;61643;49.564;17.412;2022-11-20T13:42:45;48.45;;;17.85;;
73428;SDS011;61643;49.564;17.412;2022-11-20T13:45:23;52.30;;;18.05;;
73428;SDS011;61643;49.564;17.412;2022-11-20T13:47:51;41.95;;;15.60;;
73428;SDS011;61643;49.564;17.412;2022-11-20T13:50:18;52.80;;;19.70;;
73428;SDS011;61643;49.564;17.412;2022-11-20T13:52:59;74.78;;;27.52;;
73428;SDS011;61643;49.564;17.412;2022-11-20T13:55:59;47.05;;;20.17;;
73428;SDS011;61643;49.564;17.412;2022-11-20T14:01:17;45.78;;;19.42;;
73428;SDS011;61643;49.564;17.412;2022-11-20T14:03:45;45.38;;;18.63;;
73428;SDS011;61643;49.564;17.412;2022-11-20T14:06:26;45.33;;;17.83;;
73428;SDS011;61643;49.564;17.412;2022-11-20T14:08:56;43.03;;;17.80;;
73428;SDS011;61643;49.564;17.412;2022-11-20T14:11:23;50.05;;;19.80;;
73428;SDS011;61643;49.564;17.412;2022-11-20T14:13:55;49.13;;;17.80;;
73428;SDS011;61643;49.564;17.412;2022-11-20T14:16:21;46.35;;;17.88;;
73428;SDS011;61643;49.564;17.412;2022-11-20T14:18:47;46.10;;;17.77;;
73428;SDS011;61643;49.564;17.412;2022-11-20T14:21:23;49.77;;;18.77;;
73428;SDS011;61643;49.564;17.412;2022-11-20T14:23:52;240.05;;;29.25;;
73428;SDS011;61643;49.564;17.412;2022-11-20T14:26:18;73.03;;;19.75;;
73428;SDS011;61643;49.564;17.412;2022-11-20T14:28:49;45.83;;;17.38;;
73428;SDS011;61643;49.564;17.412;2022-11-20T14:31:23;42.20;;;16.83;;
73428;SDS011;61643;49.564;17.412;2022-11-20T14:36:17;47.65;;;17.80;;
73428;SDS011;61643;49.564;17.412;2022-11-20T14:38:45;39.58;;;16.08;;
73428;SDS011;61643;49.564;17.412;2022-11-20T14:41:21;43.60;;;17.35;;
73428;SDS011;61643;49.564;17.412;2022-11-20T14:43:56;53.50;;;20.85;;
73428;SDS011;61643;49.564;17.412;2022-11-20T14:46:22;81.70;;;30.02;;
73428;SDS011;61643;49.564;17.412;2022-11-20T14:48:54;74.95;;;30.83;;
73428;SDS011;61643;49.564;17.412;2022-11-20T14:51:31;77.22;;;31.60;;
73428;SDS011;61643;49.564;17.412;2022-11-20T14:57:03;62.13;;;24.50;;
73428;SDS011;61643;49.564;17.412;2022-11-20T14:59:30;56.70;;;21.70;;
73428;SDS011;61643;49.564;17.412;2022-11-20T15:02:01;52.97;;;21.38;;
73428;SDS011;61643;49.564;17.412;2022-11-20T15:04:30;58.20;;;22.58;;
73428;SDS011;61643;49.564;17.412;2022-11-20T15:06:56;58.20;;;23.70;;
73428;SDS011;61643;49.564;17.412;2022-11-20T15:09:23;62.50;;;24.70;;
73428;SDS011;61643;49.564;17.412;2022-11-20T15:11:54;50.50;;;19.50;;
73428;SDS011;61643;49.564;17.412;2022-11-20T15:14:21;48.03;;;19.40;;
73428;SDS011;61643;49.564;17.412;2022-11-20T15:16:48;46.95;;;19.02;;
73428;SDS011;61643;49.564;17.412;2022-11-20T15:19:17;47.10;;;18.42;;
73428;SDS011;61643;49.564;17.412;2022-11-20T15:21:45;46.30;;;18.42;;
73428;SDS011;61643;49.564;17.412;2022-11-20T15:24:11;48.03;;;19.25;;
73428;SDS011;61643;49.564;17.412;2022-11-20T15:26:37;58.88;;;24.70;;
73428;SDS011;61643;49.564;17.412;2022-11-20T15:29:09;56.97;;;24.38;;
73428;SDS011;61643;49.564;17.412;2022-11-20T15:31:37;49.13;;;18.88;;
73428;SDS011;61643;49.564;17.412;2022-11-20T15:34:08;45.08;;;17.88;;
73428;SDS011;61643;49.564;17.412;2022-11-20T15:36:38;43.95;;;17.92;;
73428;SDS011;61643;49.564;17.412;2022-11-20T15:39:04;44.05;;;17.20;;
73428;SDS011;61643;49.564;17.412;2022-11-20T15:41:32;46.92;;;17.38;;
73428;SDS011;61643;49.564;17.412;2022-11-20T15:43:58;44.88;;;18.50;;
73428;SDS011;61643;49.564;17.412;2022-11-20T15:46:25;51.43;;;19.83;;
73428;SDS011;61643;49.564;17.412;2022-11-20T15:48:56;47.35;;;19.05;;
73428;SDS011;61643;49.564;17.412;2022-11-20T15:54:01;52.72;;;19.63;;
73428;SDS011;61643;49.564;17.412;2022-11-20T15:56:34;46.92;;;18.48;;
73428;SDS011;61643;49.564;17.412;2022-11-20T15:58:59;51.70;;;20.43;;